Terminal Aerodrome Forecast
Issued by NWS

Home | Current Version | Previous Version | Text Only | Print | Product List | Glossary On
Versions: 1 2 3 4 5 6 7 8 9 10 11 12 13 14 15 16 17 18 19 20 21 22 23 24
000
FTUS42 TJSJ 231743
TAFKPK
TAF
TKPK 231743Z 2318/2418 09014KT P6SM VCSH FEW018
      TEMPO 2318/2319 BKN018
     FM240600 07008KT P6SM SCT022
      AMD NOT SKED 2402/2411=

USA.gov is the U.S. government's official web portal to all federal, state and local government web resources and services.